Time;durP1;ratioP1;P1;durP2;ratioP2;P2;SDS_P1;SDS_P2;PMS_P1;PMS_P2;Temp;Humidity;BMP_temperature;BMP_pressure;BME280_temperature;BME280_humidity;BME280_pressure;Samples;Min_cycle;Max_cycle;Signal;HPM_P1;HPM_P2
2021/10/15 00:01:12;;;;;;;5.13;2.13;;;6.20;99.90;;;;;;5031799;28;20197;-75
2021/10/15 00:03:38;;;;;;;3.78;2.22;;;6.20;99.90;;;;;;5049059;28;20213;-75
2021/10/15 00:06:04;;;;;;;5.45;2.08;;;6.10;99.90;;;;;;5031563;28;20169;-75
2021/10/15 00:08:30;;;;;;;6.85;2.38;;;6.10;99.90;;;;;;5049424;28;20166;-75
2021/10/15 00:10:56;;;;;;;10.23;2.67;;;6.00;99.90;;;;;;5031457;28;20185;-75
2021/10/15 00:13:22;;;;;;;4.82;2.38;;;6.00;99.90;;;;;;5048974;28;20201;-75
2021/10/15 00:15:48;;;;;;;4.30;1.90;;;5.90;99.90;;;;;;5049516;28;20177;-74
2021/10/15 00:18:14;;;;;;;8.45;2.30;;;5.90;99.90;;;;;;5049056;28;20189;-75
2021/10/15 00:20:39;;;;;;;5.28;2.15;;;5.90;99.90;;;;;;5049411;28;20162;-75
2021/10/15 00:23:05;;;;;;;5.70;2.30;;;5.90;99.90;;;;;;5048741;28;20209;-75
2021/10/15 00:25:31;;;;;;;3.28;2.08;;;5.80;99.90;;;;;;5031147;28;20173;-75
2021/10/15 00:27:57;;;;;;;9.57;2.85;;;5.70;99.90;;;;;;5031001;28;20677;-75
2021/10/15 00:30:23;;;;;;;9.77;2.08;;;5.70;99.90;;;;;;5030914;28;20185;-75
2021/10/15 00:32:49;;;;;;;5.13;2.30;;;5.70;99.90;;;;;;5048352;28;20165;-75
2021/10/15 00:35:15;;;;;;;4.70;2.38;;;5.70;99.90;;;;;;5049016;28;20170;-75
2021/10/15 00:37:41;;;;;;;9.00;2.50;;;5.70;99.90;;;;;;5048952;28;20209;-75
2021/10/15 00:40:07;;;;;;;4.32;1.80;;;5.70;99.90;;;;;;5048847;28;20162;-75
2021/10/15 00:42:37;;;;;;;3.83;2.17;;;5.70;99.90;;;;;;5030818;28;20169;-75
2021/10/15 00:45:04;;;;;;;8.20;2.10;;;5.60;99.90;;;;;;5030601;28;20294;-75
2021/10/15 00:47:30;;;;;;;2.40;1.95;;;5.70;99.90;;;;;;5048765;28;20161;-75
2021/10/15 00:49:55;;;;;;;6.38;2.83;;;5.60;99.90;;;;;;5035844;28;20198;-75
2021/10/15 00:52:21;;;;;;;2.42;1.70;;;5.70;99.90;;;;;;5062543;28;20759;-75
2021/10/15 00:54:48;;;;;;;5.32;2.40;;;5.70;99.90;;;;;;5030119;28;20215;-75
2021/10/15 00:57:14;;;;;;;7.13;2.38;;;5.70;99.90;;;;;;5030168;28;20232;-75
2021/10/15 00:59:40;;;;;;;7.53;2.45;;;5.70;99.90;;;;;;5048547;28;20240;-75
2021/10/15 01:02:08;;;;;;;9.18;2.00;;;5.70;99.90;;;;;;5030754;28;20208;-75
2021/10/15 01:04:35;;;;;;;6.68;2.55;;;5.60;99.90;;;;;;5047255;28;20193;-75
2021/10/15 01:07:01;;;;;;;4.53;1.70;;;5.50;99.90;;;;;;5030308;28;20218;-75
2021/10/15 01:09:27;;;;;;;4.45;2.00;;;5.60;99.90;;;;;;5030398;28;20652;-75
2021/10/15 01:11:55;;;;;;;8.32;2.05;;;5.50;99.90;;;;;;5048353;28;20188;-75
2021/10/15 01:14:22;;;;;;;3.63;1.98;;;5.50;99.90;;;;;;5029760;28;20193;-75
2021/10/15 01:16:48;;;;;;;5.15;2.20;;;5.40;99.90;;;;;;5027488;28;20205;-75
2021/10/15 01:19:14;;;;;;;4.55;2.08;;;5.40;99.90;;;;;;5028815;28;20192;-75
2021/10/15 01:21:40;;;;;;;6.70;2.00;;;5.30;99.90;;;;;;5042987;28;20206;-75
2021/10/15 01:24:06;;;;;;;3.15;1.63;;;5.20;99.90;;;;;;5029051;28;20191;-75
2021/10/15 01:26:32;;;;;;;4.60;2.20;;;5.20;99.90;;;;;;5048430;28;20160;-74
2021/10/15 01:28:58;;;;;;;4.90;2.50;;;5.20;99.90;;;;;;5048319;28;20177;-75
2021/10/15 01:31:26;;;;;;;3.53;1.73;;;5.30;99.90;;;;;;5048185;28;20150;-74
2021/10/15 01:33:55;;;;;;;5.30;2.20;;;5.30;99.90;;;;;;5048342;28;20154;-74
2021/10/15 01:36:22;;;;;;;1.88;1.60;;;5.20;99.90;;;;;;5048282;28;20251;-74
2021/10/15 01:38:48;;;;;;;4.15;1.88;;;5.20;99.90;;;;;;5030438;28;20193;-74
2021/10/15 01:41:14;;;;;;;3.80;2.08;;;5.20;99.90;;;;;;5030377;28;20172;-75
2021/10/15 01:43:40;;;;;;;12.07;2.00;;;5.20;99.90;;;;;;5030423;28;20597;-74
2021/10/15 01:46:06;;;;;;;5.78;2.25;;;5.10;99.90;;;;;;5048387;28;20191;-75
2021/10/15 01:48:32;;;;;;;2.60;1.70;;;5.10;99.90;;;;;;5048258;28;20161;-75
2021/10/15 01:50:58;;;;;;;4.45;2.03;;;5.10;99.90;;;;;;5048166;28;20162;-75
2021/10/15 01:53:24;;;;;;;2.83;2.10;;;5.00;99.90;;;;;;5054037;28;20295;-74
2021/10/15 01:55:50;;;;;;;6.43;2.13;;;5.00;99.90;;;;;;5068023;28;20169;-74
2021/10/15 01:58:17;;;;;;;2.70;2.25;;;4.90;99.90;;;;;;5067956;28;20199;-74
2021/10/15 02:00:43;;;;;;;6.07;2.00;;;4.90;99.90;;;;;;5066574;28;20514;-74
2021/10/15 02:03:09;;;;;;;4.57;2.22;;;4.90;99.90;;;;;;5066478;28;20200;-74
2021/10/15 02:05:35;;;;;;;2.55;1.77;;;4.90;99.90;;;;;;5067959;28;20179;-74
2021/10/15 02:08:01;;;;;;;6.35;2.53;;;4.90;99.90;;;;;;5066492;28;20230;-75
2021/10/15 02:10:27;;;;;;;2.80;1.75;;;4.90;99.90;;;;;;5067889;28;20161;-75
2021/10/15 02:12:54;;;;;;;3.08;2.05;;;4.80;99.90;;;;;;5067752;28;20197;-75
2021/10/15 02:15:19;;;;;;;5.18;1.77;;;4.90;99.90;;;;;;5067847;28;20160;-75
2021/10/15 02:17:46;;;;;;;4.00;1.85;;;4.90;99.90;;;;;;5070891;28;20190;-75
2021/10/15 02:20:15;;;;;;;2.88;1.55;;;4.90;99.90;;;;;;5071808;28;20164;-75
2021/10/15 02:22:44;;;;;;;3.72;1.95;;;4.80;99.90;;;;;;5070414;28;20200;-75
2021/10/15 02:25:14;;;;;;;2.15;1.73;;;4.80;99.90;;;;;;5070513;28;20177;-74
2021/10/15 02:27:41;;;;;;;4.88;1.98;;;4.80;99.90;;;;;;5070404;28;20671;-75
2021/10/15 02:30:10;;;;;;;5.28;2.15;;;4.70;99.90;;;;;;5071725;28;20161;-75
2021/10/15 02:32:36;;;;;;;1.52;1.38;;;4.70;99.90;;;;;;5070309;28;20611;-75
2021/10/15 02:35:04;;;;;;;6.45;2.45;;;4.60;99.90;;;;;;5070495;28;20172;-76
2021/10/15 02:37:30;;;;;;;3.38;2.10;;;4.70;99.90;;;;;;5069997;28;20220;-76
2021/10/15 02:39:56;;;;;;;7.00;2.28;;;4.60;99.90;;;;;;5071464;28;20230;-76
2021/10/15 02:42:22;;;;;;;3.65;2.05;;;4.60;99.90;;;;;;5071246;28;20192;-75
2021/10/15 02:44:48;;;;;;;4.25;2.03;;;4.60;99.90;;;;;;5071588;28;20180;-76
2021/10/15 02:47:14;;;;;;;4.45;1.90;;;4.60;99.90;;;;;;5069919;28;20199;-75
2021/10/15 02:49:40;;;;;;;5.30;2.63;;;4.60;99.90;;;;;;5071323;28;20161;-76
2021/10/15 02:52:06;;;;;;;3.38;1.67;;;4.60;99.90;;;;;;5066629;28;20248;-75
2021/10/15 02:54:32;;;;;;;5.00;2.13;;;4.60;99.90;;;;;;5051258;28;20268;-76
2021/10/15 02:56:57;;;;;;;11.98;2.20;;;4.60;99.90;;;;;;5033046;28;20287;-77
2021/10/15 02:59:23;;;;;;;5.97;1.90;;;4.60;99.90;;;;;;5051111;28;20180;-75
2021/10/15 03:01:49;;;;;;;9.95;3.78;;;4.70;99.90;;;;;;5033395;28;20235;-75
2021/10/15 03:04:15;;;;;;;11.85;3.85;;;4.80;99.90;;;;;;5050989;28;20191;-76
2021/10/15 03:06:41;;;;;;;9.38;4.78;;;4.80;99.90;;;;;;5050888;28;20241;-77
2021/10/15 03:09:07;;;;;;;10.65;4.88;;;4.80;99.90;;;;;;5050783;28;20162;-75
2021/10/15 03:11:33;;;;;;;5.97;3.03;;;4.80;99.90;;;;;;5032864;28;20174;-76
2021/10/15 03:13:59;;;;;;;8.20;2.63;;;4.70;99.90;;;;;;5051038;28;20177;-75
2021/10/15 03:16:25;;;;;;;7.55;2.63;;;4.60;99.90;;;;;;5050961;28;20514;-74
2021/10/15 03:18:51;;;;;;;5.68;2.08;;;4.60;99.90;;;;;;5050720;28;20185;-75
2021/10/15 03:21:17;;;;;;;7.43;2.15;;;4.70;99.90;;;;;;5050725;28;20154;-75
2021/10/15 03:23:43;;;;;;;11.45;2.35;;;4.60;99.90;;;;;;5050562;28;20686;-74
2021/10/15 03:26:09;;;;;;;6.43;2.47;;;4.60;99.90;;;;;;5050507;28;20168;-75
2021/10/15 03:28:35;;;;;;;8.55;2.00;;;4.50;99.90;;;;;;5049670;28;20166;-75
2021/10/15 03:31:01;;;;;;;4.32;1.55;;;4.40;99.90;;;;;;5050515;28;20161;-75
2021/10/15 03:33:27;;;;;;;3.83;2.78;;;4.40;99.90;;;;;;5050326;28;20197;-75
2021/10/15 03:35:53;;;;;;;5.30;2.20;;;4.40;99.90;;;;;;5032411;28;20608;-75
2021/10/15 03:38:18;;;;;;;3.28;1.70;;;4.40;99.90;;;;;;5050222;28;20185;-75
2021/10/15 03:40:44;;;;;;;4.10;1.77;;;4.50;99.90;;;;;;5050289;28;20157;-75
2021/10/15 03:43:10;;;;;;;2.58;1.80;;;4.50;99.90;;;;;;5032021;28;20201;-75
2021/10/15 03:45:36;;;;;;;6.50;2.88;;;4.60;99.90;;;;;;5050126;28;20158;-75
2021/10/15 03:48:03;;;;;;;8.05;2.50;;;4.60;99.90;;;;;;5050112;28;20165;-77
2021/10/15 03:50:29;;;;;;;3.50;2.00;;;4.60;99.90;;;;;;5032026;28;20174;-75
2021/10/15 03:52:55;;;;;;;8.30;1.95;;;4.60;99.90;;;;;;5047596;28;20597;-75
2021/10/15 03:55:21;;;;;;;3.78;1.95;;;4.50;99.90;;;;;;5069836;28;20231;-75
2021/10/15 03:57:47;;;;;;;3.08;1.88;;;4.50;99.90;;;;;;5068372;28;20202;-75
2021/10/15 04:00:13;;;;;;;5.13;2.40;;;4.60;99.90;;;;;;5068430;28;20169;-75
2021/10/15 04:02:45;;;;;;;6.90;2.85;;;4.50;99.90;;;;;;5069839;28;20214;-75
2021/10/15 04:05:12;;;;;;;7.97;2.47;;;4.50;99.90;;;;;;5069704;28;20153;-75
2021/10/15 04:07:38;;;;;;;9.55;2.15;;;4.50;99.90;;;;;;5069695;28;20617;-75
2021/10/15 04:10:07;;;;;;;10.10;2.65;;;4.30;99.90;;;;;;5070042;28;20226;-75
2021/10/15 04:12:34;;;;;;;7.20;1.77;;;4.10;99.90;;;;;;5067825;28;20267;-75
2021/10/15 04:15:01;;;;;;;5.30;1.92;;;4.10;99.90;;;;;;5068192;28;20169;-76
2021/10/15 04:17:27;;;;;;;5.40;2.47;;;4.10;99.90;;;;;;5067954;28;20296;-75
2021/10/15 04:19:53;;;;;;;7.47;2.10;;;4.00;99.90;;;;;;5067691;28;20180;-75
2021/10/15 04:22:19;;;;;;;5.18;2.95;;;3.90;99.90;;;;;;5068821;28;20203;-75
2021/10/15 04:24:45;;;;;;;3.92;2.20;;;4.00;99.90;;;;;;5067961;28;20168;-76
2021/10/15 04:27:11;;;;;;;2.97;2.05;;;3.90;99.90;;;;;;5069167;28;20183;-75
2021/10/15 04:29:37;;;;;;;7.13;2.50;;;4.00;99.90;;;;;;5069076;28;20161;-75
2021/10/15 04:32:04;;;;;;;5.35;2.40;;;4.10;99.90;;;;;;5067530;28;20201;-75
2021/10/15 04:34:30;;;;;;;6.40;3.40;;;4.20;99.90;;;;;;5069218;28;20176;-76
2021/10/15 04:36:55;;;;;;;8.57;3.65;;;4.20;99.90;;;;;;5068973;28;20198;-76
2021/10/15 04:39:21;;;;;;;5.07;3.45;;;4.20;99.90;;;;;;5068818;28;20183;-76
2021/10/15 04:41:47;;;;;;;4.10;2.63;;;4.20;99.90;;;;;;5067179;28;20172;-75
2021/10/15 04:44:14;;;;;;;5.03;2.70;;;4.10;99.90;;;;;;5069084;28;20224;-74
2021/10/15 04:46:40;;;;;;;3.38;2.20;;;4.00;99.90;;;;;;5068891;28;20260;-74
2021/10/15 04:49:06;;;;;;;6.47;2.75;;;4.00;99.90;;;;;;5067545;28;20260;-75
2021/10/15 04:51:32;;;;;;;4.63;2.85;;;3.90;99.90;;;;;;5068791;28;20161;-74
2021/10/15 04:53:58;;;;;;;6.95;2.70;;;3.80;99.90;;;;;;5050180;28;20220;-75
2021/10/15 04:56:24;;;;;;;5.05;3.05;;;3.80;99.90;;;;;;5048566;28;20217;-75
2021/10/15 04:58:50;;;;;;;3.85;2.85;;;3.70;99.90;;;;;;5048725;28;20571;-74
2021/10/15 05:01:16;;;;;;;6.45;3.05;;;3.60;99.90;;;;;;5050054;28;20164;-75
2021/10/15 05:03:41;;;;;;;7.15;3.72;;;3.60;99.90;;;;;;5050001;28;20200;-75
2021/10/15 05:06:08;;;;;;;4.10;2.63;;;3.60;99.90;;;;;;5049531;28;20149;-75
2021/10/15 05:08:43;;;;;;;4.13;3.28;;;3.60;99.90;;;;;;5050171;28;20164;-75
2021/10/15 05:11:09;;;;;;;6.47;3.10;;;3.70;99.90;;;;;;5031717;28;20179;-74
2021/10/15 05:13:36;;;;;;;3.50;3.00;;;3.80;99.90;;;;;;5049503;28;20189;-76
2021/10/15 05:16:02;;;;;;;8.10;3.42;;;3.90;99.90;;;;;;5049603;28;20161;-75
2021/10/15 05:18:28;;;;;;;4.20;2.80;;;3.90;99.90;;;;;;5049043;28;20252;-75
2021/10/15 05:20:54;;;;;;;7.10;3.42;;;3.80;99.90;;;;;;5049701;28;20158;-75
2021/10/15 05:23:20;;;;;;;4.93;2.80;;;3.90;99.90;;;;;;5049609;28;20185;-75
2021/10/15 05:25:46;;;;;;;4.60;3.03;;;3.90;99.90;;;;;;5049015;28;20172;-75
2021/10/15 05:28:12;;;;;;;5.85;3.53;;;3.80;99.90;;;;;;5048047;28;20165;-76
2021/10/15 05:30:37;;;;;;;6.05;2.88;;;3.90;99.90;;;;;;5047660;28;20638;-76
2021/10/15 05:33:03;;;;;;;4.65;3.03;;;3.90;99.90;;;;;;5029923;28;20268;-76
2021/10/15 05:35:29;;;;;;;5.32;3.50;;;3.80;99.90;;;;;;5047910;28;20166;-75
2021/10/15 05:37:55;;;;;;;4.80;3.50;;;3.70;99.90;;;;;;5029930;28;20196;-76
2021/10/15 05:40:21;;;;;;;15.32;3.78;;;3.80;99.90;;;;;;5047786;28;20654;-76
2021/10/15 05:42:49;;;;;;;6.00;2.92;;;3.90;99.90;;;;;;5029173;28;20201;-76
2021/10/15 05:45:16;;;;;;;6.70;2.92;;;3.90;99.90;;;;;;5047897;28;20531;-75
2021/10/15 05:47:42;;;;;;;3.85;3.20;;;3.90;99.90;;;;;;5047833;28;20551;-75
2021/10/15 05:50:09;;;;;;;6.75;3.42;;;3.90;99.90;;;;;;5047954;28;20168;-75
2021/10/15 05:52:42;;;;;;;4.85;3.20;;;4.00;99.90;;;;;;5039994;28;20335;-76
2021/10/15 05:58:49;;;;;;;7.20;3.80;;;4.10;99.90;;;;;;5067617;28;20231;-75
2021/10/15 06:00:20;;;;;;;7.75;3.60;;;4.00;99.90;;;;;;5057851;28;20205;-76
2021/10/15 06:02:46;;;;;;;7.35;3.55;;;4.10;99.90;;;;;;5056450;28;20201;-75
2021/10/15 06:15:43;;;;;;;14.55;4.25;;;4.30;99.90;;;;;;5067187;28;20214;-75
2021/10/15 06:18:26;;;;;;;7.53;3.92;;;4.30;99.90;;;;;;5067114;28;20653;-75
2021/10/15 06:20:53;;;;;;;8.70;2.78;;;4.40;99.90;;;;;;5067241;28;20156;-75
2021/10/15 06:23:20;;;;;;;5.22;2.28;;;4.60;99.90;;;;;;5065962;28;20188;-75
2021/10/15 06:25:47;;;;;;;11.77;2.78;;;4.70;99.90;;;;;;5067415;28;20189;-75
2021/10/15 06:28:13;;;;;;;6.13;2.92;;;4.80;99.90;;;;;;5066101;28;20672;-75
2021/10/15 06:30:40;;;;;;;6.95;3.15;;;4.80;99.90;;;;;;5067269;28;20168;-76
2021/10/15 06:33:07;;;;;;;8.23;2.72;;;4.90;99.90;;;;;;5067115;28;20199;-75
2021/10/15 06:35:33;;;;;;;16.77;3.38;;;4.90;99.90;;;;;;5066025;28;20259;-75
2021/10/15 06:37:59;;;;;;;5.18;2.67;;;5.00;99.90;;;;;;5067053;28;20211;-76
2021/10/15 06:40:26;;;;;;;7.38;3.03;;;5.20;99.90;;;;;;5067269;28;20235;-76
2021/10/15 06:42:52;;;;;;;7.72;2.95;;;5.30;99.90;;;;;;5065795;28;20661;-75
2021/10/15 06:45:19;;;;;;;4.32;2.85;;;5.50;99.90;;;;;;5066098;28;20183;-76
2021/10/15 06:47:45;;;;;;;6.43;3.17;;;5.80;99.90;;;;;;5063849;28;20180;-75
2021/10/15 06:50:11;;;;;;;5.10;2.40;;;6.00;99.90;;;;;;5062502;28;20543;-75
2021/10/15 06:52:46;;;;;;;5.90;2.92;;;6.20;99.90;;;;;;5056627;28;20248;-75
2021/10/15 06:55:22;;;;;;;4.35;2.53;;;6.40;99.90;;;;;;5044925;28;20161;-75
2021/10/15 06:57:49;;;;;;;4.45;2.50;;;6.70;99.90;;;;;;5044942;28;20212;-75
2021/10/15 07:00:17;;;;;;;7.53;2.92;;;7.10;99.90;;;;;;5045239;28;20183;-75
2021/10/15 07:02:44;;;;;;;11.55;3.00;;;7.50;99.90;;;;;;5029074;28;20177;-75
2021/10/15 07:05:11;;;;;;;7.82;3.53;;;7.70;99.90;;;;;;5032964;28;20200;-75
2021/10/15 07:07:38;;;;;;;6.88;3.05;;;7.70;99.90;;;;;;5050757;28;20187;-75
2021/10/15 07:10:06;;;;;;;6.45;2.58;;;8.00;99.90;;;;;;5050749;28;20185;-75
2021/10/15 07:12:39;;;;;;;3.85;2.05;;;8.40;99.90;;;;;;5050682;28;20165;-76
2021/10/15 07:15:07;;;;;;;6.50;2.85;;;8.60;99.90;;;;;;5032647;28;20216;-75
2021/10/15 07:17:34;;;;;;;4.05;2.63;;;8.90;99.90;;;;;;5050367;28;20193;-75
2021/10/15 07:20:00;;;;;;;9.25;2.72;;;9.30;99.90;;;;;;5032633;28;20186;-76
2021/10/15 07:22:27;;;;;;;4.95;3.28;;;9.60;99.90;;;;;;5032491;28;20173;-76
2021/10/15 07:24:53;;;;;;;7.03;3.20;;;9.50;99.90;;;;;;5050447;28;20191;-76
2021/10/15 07:27:19;;;;;;;6.60;2.92;;;9.40;99.90;;;;;;5032494;28;20188;-76
2021/10/15 07:29:45;;;;;;;5.57;2.40;;;9.30;99.90;;;;;;5050266;28;20261;-76
2021/10/15 07:32:11;;;;;;;5.95;2.83;;;9.10;99.90;;;;;;5032368;28;20206;-76
2021/10/15 07:34:37;;;;;;;7.65;2.75;;;9.00;99.90;;;;;;5032477;28;20181;-75
2021/10/15 07:37:03;;;;;;;9.45;3.72;;;8.70;99.90;;;;;;5032191;28;20270;-75
2021/10/15 07:39:29;;;;;;;8.27;3.67;;;8.60;99.90;;;;;;5032213;28;20205;-75
2021/10/15 07:41:55;;;;;;;6.18;3.08;;;8.70;99.90;;;;;;5050228;28;20284;-75
2021/10/15 07:44:21;;;;;;;5.55;3.10;;;9.20;99.90;;;;;;5050183;28;20242;-75
2021/10/15 07:46:47;;;;;;;12.30;3.40;;;10.30;99.90;;;;;;5050025;28;20158;-76
2021/10/15 07:49:13;;;;;;;7.60;3.30;;;11.60;99.90;;;;;;5049944;28;20249;-76
2021/10/15 07:51:39;;;;;;;8.23;4.03;;;11.70;99.90;;;;;;5031956;28;20291;-75
2021/10/15 07:54:05;;;;;;;8.43;3.08;;;11.40;99.90;;;;;;5049741;28;20221;-75
2021/10/15 07:56:32;;;;;;;5.18;2.63;;;11.30;99.90;;;;;;5049930;28;20158;-75
2021/10/15 07:58:59;;;;;;;6.20;3.20;;;11.60;99.90;;;;;;5049792;28;20281;-75
2021/10/15 08:01:25;;;;;;;12.57;2.85;;;12.60;99.90;;;;;;5049874;28;20204;-75
2021/10/15 08:03:52;;;;;;;5.78;2.83;;;12.80;99.90;;;;;;5049564;28;20157;-76
2021/10/15 08:06:19;;;;;;;5.57;3.30;;;13.20;99.90;;;;;;5031754;28;20254;-75
2021/10/15 08:08:45;;;;;;;11.82;3.20;;;13.20;99.90;;;;;;5049498;28;20200;-75
2021/10/15 08:11:12;;;;;;;8.43;3.08;;;13.00;99.90;;;;;;5042867;28;20584;-76
2021/10/15 08:13:38;;;;;;;11.05;4.63;;;13.50;99.90;;;;;;5048940;28;20188;-76
2021/10/15 08:16:05;;;;;;;10.40;3.78;;;13.40;99.90;;;;;;5048896;28;20162;-76
2021/10/15 08:18:31;;;;;;;5.40;3.40;;;13.10;99.90;;;;;;5049052;28;20205;-76
2021/10/15 08:20:57;;;;;;;9.95;3.28;;;13.20;99.90;;;;;;5048990;28;20153;-77
2021/10/15 08:23:28;;;;;;;9.32;3.65;;;13.40;99.90;;;;;;5049054;28;20194;-77
2021/10/15 08:25:58;;;;;;;9.75;4.13;;;13.00;99.90;;;;;;5031035;28;20182;-77
2021/10/15 08:28:25;;;;;;;8.98;4.03;;;12.80;99.90;;;;;;5031260;28;20220;-76
2021/10/15 08:30:52;;;;;;;9.52;4.78;;;12.80;99.90;;;;;;5048670;28;20161;-76
2021/10/15 08:33:18;;;;;;;12.27;3.80;;;13.10;99.90;;;;;;5049082;28;20185;-76
2021/10/15 08:35:45;;;;;;;8.95;3.30;;;14.00;99.90;;;;;;5048837;28;20166;-76
2021/10/15 08:38:12;;;;;;;6.25;2.85;;;14.90;99.90;;;;;;5030834;28;20216;-76
2021/10/15 08:40:37;;;;;;;6.50;2.90;;;15.50;99.90;;;;;;5048495;28;20170;-76
2021/10/15 08:43:03;;;;;;;8.48;3.47;;;14.60;99.90;;;;;;5031010;28;20584;-76
2021/10/15 08:45:32;;;;;;;5.95;3.22;;;13.90;99.90;;;;;;5030943;28;20169;-76
2021/10/15 08:47:59;;;;;;;14.70;4.40;;;13.50;99.90;;;;;;5048762;28;20272;-75
2021/10/15 08:50:26;;;;;;;6.25;3.63;;;13.80;99.90;;;;;;5030622;28;20173;-76
2021/10/15 08:52:52;;;;;;;10.82;4.18;;;14.30;99.90;;;;;;5048395;28;20228;-76
2021/10/15 08:55:18;;;;;;;10.10;4.63;;;14.10;99.90;;;;;;5032853;28;20203;-77
2021/10/15 08:57:49;;;;;;;8.15;3.75;;;14.40;99.90;;;;;;5050126;28;20326;-76
2021/10/15 09:00:25;;;;;;;6.55;3.25;;;15.00;99.90;;;;;;5061338;28;20216;-76
2021/10/15 09:03:23;;;;;;;5.53;3.38;;;14.90;99.90;;;;;;5048027;28;20169;-77
2021/10/15 09:06:00;;;;;;;6.45;3.38;;;14.70;99.90;;;;;;5026561;28;20261;-76
2021/10/15 09:08:41;;;;;;;7.35;3.08;;;14.60;99.90;;;;;;5037894;28;20209;-76
2021/10/15 09:11:30;;;;;;;10.15;3.83;;;14.90;99.90;;;;;;5042860;28;20189;-76
2021/10/15 09:14:11;;;;;;;5.30;3.28;;;15.90;99.90;;;;;;5027061;28;20169;-77
2021/10/15 09:17:03;;;;;;;3.38;2.85;;;16.10;99.90;;;;;;5028276;28;20169;-76
2021/10/15 09:19:45;;;;;;;5.18;2.50;;;15.80;99.90;;;;;;5028139;28;20165;-76
2021/10/15 09:22:19;;;;;;;5.72;2.88;;;16.90;99.90;;;;;;5028747;28;20158;-77
2021/10/15 09:24:49;;;;;;;4.68;2.65;;;17.00;99.90;;;;;;5029617;28;20157;-76
2021/10/15 09:27:29;;;;;;;6.40;2.63;;;17.50;99.90;;;;;;5028809;28;20169;-76
2021/10/15 09:30:06;;;;;;;6.28;2.65;;;18.30;99.90;;;;;;5047003;28;20201;-76
2021/10/15 09:32:38;;;;;;;4.55;2.50;;;18.60;99.90;;;;;;5046892;28;20233;-75
2021/10/15 09:35:05;;;;;;;2.88;2.45;;;17.30;99.90;;;;;;5047245;28;20240;-76
2021/10/15 09:37:37;;;;;;;5.32;2.78;;;15.90;99.90;;;;;;5029673;28;20304;-75
2021/10/15 09:40:13;;;;;;;5.28;2.97;;;16.30;99.90;;;;;;5022377;28;20709;-76
2021/10/15 09:42:52;;;;;;;4.05;2.60;;;16.70;99.90;;;;;;5008970;28;20313;-75
2021/10/15 09:45:29;;;;;;;3.55;2.30;;;15.70;99.90;;;;;;5009616;28;20233;-76
2021/10/15 09:48:01;;;;;;;6.55;2.70;;;16.20;99.90;;;;;;5046312;28;20191;-75
2021/10/15 09:50:32;;;;;;;2.97;1.80;;;15.50;99.90;;;;;;5046191;28;20217;-75
2021/10/15 09:53:01;;;;;;;2.72;1.92;;;15.50;99.90;;;;;;5045657;28;20232;-76
2021/10/15 09:55:36;;;;;;;10.00;2.90;;;16.20;99.90;;;;;;5066711;28;20181;-76
2021/10/15 09:58:19;;;;;;;4.15;2.25;;;17.60;99.90;;;;;;5066488;28;20264;-75
2021/10/15 10:00:51;;;;;;;3.72;2.38;;;17.30;99.90;;;;;;5064477;28;20204;-76
2021/10/15 10:03:19;;;;;;;10.30;2.83;;;17.40;99.90;;;;;;5066480;28;20161;-77
2021/10/15 10:05:46;;;;;;;3.88;2.35;;;17.50;99.90;;;;;;5066629;28;20176;-76
2021/10/15 10:08:12;;;;;;;3.58;2.30;;;16.20;99.90;;;;;;5065115;28;20188;-77
2021/10/15 10:10:40;;;;;;;3.95;2.30;;;16.20;99.90;;;;;;5065952;28;20713;-75
2021/10/15 10:13:07;;;;;;;2.83;2.33;;;16.90;99.90;;;;;;5065058;28;20251;-74
2021/10/15 10:15:37;;;;;;;6.10;2.97;;;18.30;99.90;;;;;;5085133;28;20265;-75
2021/10/15 10:18:26;;;;;;;5.93;2.75;;;19.50;99.90;;;;;;5075340;28;20357;-76
2021/10/15 10:21:07;;;;;;;4.32;1.88;;;18.60;99.90;;;;;;5065897;28;20196;-75
2021/10/15 10:23:52;;;;;;;4.65;2.80;;;18.30;99.90;;;;;;5064807;28;20164;-75
2021/10/15 10:26:23;;;;;;;6.05;2.15;;;17.80;99.90;;;;;;5065216;28;20172;-75
2021/10/15 10:29:04;;;;;;;2.85;1.77;;;17.10;99.90;;;;;;5066149;28;20194;-75
2021/10/15 10:31:32;;;;;;;6.10;2.28;;;17.00;99.90;;;;;;5065523;28;20192;-75
2021/10/15 10:34:19;;;;;;;3.22;1.98;;;16.50;99.90;;;;;;5066210;28;20161;-76
2021/10/15 10:37:05;;;;;;;3.38;2.05;;;16.20;99.90;;;;;;5064003;28;20237;-76
2021/10/15 10:39:31;;;;;;;4.55;1.80;;;16.30;99.90;;;;;;5070479;28;20210;-76
2021/10/15 10:42:12;;;;;;;5.60;2.15;;;15.60;99.90;;;;;;5068823;28;20534;-75
2021/10/15 10:44:59;;;;;;;2.80;1.70;;;16.60;99.90;;;;;;5068995;28;20218;-75
2021/10/15 10:47:27;;;;;;;4.20;1.90;;;17.00;99.90;;;;;;5069263;28;20181;-75
2021/10/15 10:50:03;;;;;;;3.72;1.63;;;17.60;99.90;;;;;;5068622;28;20681;-75
2021/10/15 10:52:36;;;;;;;4.03;1.70;;;17.80;99.90;;;;;;5068258;28;20220;-74
2021/10/15 10:55:03;;;;;;;3.97;1.58;;;16.50;99.90;;;;;;5070116;28;20168;-76
2021/10/15 10:57:33;;;;;;;1.92;1.45;;;17.30;99.90;;;;;;5068269;28;20200;-76
2021/10/15 11:00:22;;;;;;;1.73;1.02;;;16.00;99.90;;;;;;5069645;28;20189;-76
2021/10/15 11:02:59;;;;;;;4.72;1.40;;;16.00;99.90;;;;;;5070098;28;20171;-75
2021/10/15 11:05:29;;;;;;;2.67;1.20;;;17.10;99.90;;;;;;5069869;28;20543;-75
2021/10/15 11:08:23;;;;;;;0.88;0.80;;;17.00;99.90;;;;;;5070352;28;20734;-74
2021/10/15 11:10:54;;;;;;;1.27;0.90;;;15.90;99.90;;;;;;5068062;28;20544;-75
2021/10/15 11:13:33;;;;;;;1.35;0.88;;;16.40;99.90;;;;;;5068699;28;20169;-75
2021/10/15 11:16:00;;;;;;;2.15;1.17;;;16.90;99.90;;;;;;5089908;28;20241;-76
2021/10/15 11:18:27;;;;;;;1.33;0.85;;;17.10;99.90;;;;;;5089786;28;20223;-75
2021/10/15 11:20:54;;;;;;;3.40;0.80;;;16.60;99.90;;;;;;5089305;28;20651;-77
2021/10/15 11:23:20;;;;;;;1.67;0.80;;;16.10;99.90;;;;;;5089574;28;20145;-75
2021/10/15 11:25:48;;;;;;;1.13;0.90;;;16.10;99.90;;;;;;5088722;28;20248;-74
2021/10/15 11:28:20;;;;;;;3.70;1.05;;;16.10;99.90;;;;;;5088203;28;20172;-75
2021/10/15 11:30:48;;;;;;;2.50;0.88;;;16.00;99.90;;;;;;5087004;28;20202;-75
2021/10/15 11:33:20;;;;;;;1.02;0.75;;;15.90;99.90;;;;;;5089279;28;20168;-74
2021/10/15 11:35:51;;;;;;;1.70;0.70;;;17.20;99.90;;;;;;5087966;28;20204;-74
2021/10/15 11:38:20;;;;;;;2.30;1.13;;;18.60;99.90;;;;;;5087448;28;20210;-75
2021/10/15 11:40:49;;;;;;;1.45;0.90;;;17.60;99.90;;;;;;5087706;28;20199;-75
2021/10/15 11:43:22;;;;;;;4.85;0.93;;;17.50;99.90;;;;;;5082542;28;20172;-77
2021/10/15 11:46:10;;;;;;;1.83;1.00;;;17.90;99.90;;;;;;5069072;28;20153;-76
2021/10/15 11:48:41;;;;;;;1.45;0.90;;;19.00;99.90;;;;;;5055764;28;20199;-76
2021/10/15 11:51:19;;;;;;;1.98;0.98;;;19.50;99.00;;;;;;5063542;28;20612;-75
2021/10/15 11:53:49;;;;;;;0.82;0.60;;;17.30;99.90;;;;;;5050112;28;20223;-76
2021/10/15 11:56:24;;;;;;;2.05;0.90;;;17.00;99.90;;;;;;5048937;28;20200;-75
2021/10/15 11:58:51;;;;;;;1.60;1.02;;;18.10;99.70;;;;;;5048890;28;20262;-76
2021/10/15 12:01:26;;;;;;;1.00;0.65;;;18.00;99.40;;;;;;5030658;28;20718;-76
2021/10/15 12:04:07;;;;;;;1.05;0.70;;;17.60;99.90;;;;;;5030301;28;20184;-75
2021/10/15 12:06:35;;;;;;;1.90;0.80;;;18.20;99.90;;;;;;5045669;28;20188;-73
2021/10/15 12:09:06;;;;;;;0.57;0.57;;;17.60;99.90;;;;;;5030586;28;20192;-74
2021/10/15 12:11:41;;;;;;;2.25;1.15;;;16.70;99.90;;;;;;5030365;28;20209;-75
2021/10/15 12:14:30;;;;;;;2.22;0.60;;;15.70;99.90;;;;;;5049462;28;20203;-75
2021/10/15 12:17:19;;;;;;;1.23;0.55;;;15.20;99.90;;;;;;5030590;28;20197;-75
2021/10/15 12:19:51;;;;;;;3.33;0.60;;;15.20;99.90;;;;;;5048495;28;20201;-75
2021/10/15 12:22:26;;;;;;;1.30;1.20;;;14.70;99.90;;;;;;5047933;28;20223;-76
2021/10/15 12:25:01;;;;;;;1.92;0.82;;;14.30;99.90;;;;;;5048489;28;20260;-75
2021/10/15 12:27:38;;;;;;;1.20;0.68;;;14.10;99.90;;;;;;5048056;28;20224;-75
2021/10/15 12:30:13;;;;;;;1.67;0.80;;;14.00;99.90;;;;;;5048329;28;20234;-76
2021/10/15 12:32:40;;;;;;;1.20;0.70;;;14.20;99.90;;;;;;5048309;28;20157;-76
2021/10/15 12:35:18;;;;;;;2.33;0.82;;;14.10;99.90;;;;;;5048130;28;20161;-75
2021/10/15 12:37:54;;;;;;;0.45;0.45;;;14.10;99.90;;;;;;5029742;28;20215;-75
2021/10/15 12:40:32;;;;;;;2.80;0.68;;;14.10;99.90;;;;;;5048143;28;20160;-75
2021/10/15 12:43:06;;;;;;;1.05;0.70;;;14.10;99.90;;;;;;5048165;28;20150;-74
2021/10/15 12:45:40;;;;;;;4.05;0.68;;;14.10;99.90;;;;;;5048076;28;20161;-75
2021/10/15 12:48:34;;;;;;;2.63;1.08;;;14.00;99.90;;;;;;5047008;28;20263;-74
2021/10/15 12:51:10;;;;;;;2.80;0.70;;;13.80;99.90;;;;;;5008057;28;20185;-75
2021/10/15 12:53:40;;;;;;;0.88;0.60;;;13.90;99.90;;;;;;5056467;28;20285;-75
2021/10/15 12:56:17;;;;;;;1.15;0.98;;;14.00;99.90;;;;;;5066228;28;20236;-75
2021/10/15 12:58:50;;;;;;;1.15;0.60;;;14.10;99.90;;;;;;5067703;28;20208;-75
2021/10/15 13:01:27;;;;;;;1.60;0.80;;;14.10;99.90;;;;;;5066745;28;20501;-76
2021/10/15 13:03:54;;;;;;;3.95;0.90;;;13.90;99.90;;;;;;5067603;28;20167;-75
2021/10/15 13:06:21;;;;;;;0.60;0.60;;;14.10;99.90;;;;;;5067574;28;20180;-75
2021/10/15 13:08:56;;;;;;;1.05;0.82;;;14.30;99.90;;;;;;5067393;28;20248;-75
2021/10/15 13:11:24;;;;;;;1.40;1.08;;;14.40;99.90;;;;;;5067715;28;20573;-75
2021/10/15 13:13:52;;;;;;;4.18;1.33;;;14.40;99.90;;;;;;5071728;28;20172;-74
2021/10/15 13:16:19;;;;;;;0.88;0.50;;;14.40;99.90;;;;;;5086079;28;20218;-74